Airport ICAO


22:00 UTC

11°C

Mist


An affordable passengers' Moving Map for your aircraft. Made for the iPad and the iPhone
More information here

LFLL Saint Exupery


Lyon FRANCE   IFR CAT I


METAR LFLL 132130Z 36005KT 340V040 4100 1600E R35L/1400U R35R/1200U BR VV/// 11/10 Q1030 NOSIG 0h30min

TAF AMD LFLL 132101Z 1321/1424 33004KT 3000 BR OVC002 PROB40 TEMPO 1321/1408 0400 FG VV/// BECMG 1408/1410 3000 OVC003 TEMPO 1413/1417 8000 NSW FEW005 BECMG 1418/1421 0400 FG VV/// 0h59min





NOTAMS

OPEN